sensor_id;sensor_type;location;lat;lon;timestamp;temperature;humidity
4090;DHT22;2059;48.538;12.146;2022-09-01T00:01:32;18.50;99.90
4090;DHT22;2059;48.538;12.146;2022-09-01T00:06:36;18.50;99.90
4090;DHT22;2059;48.538;12.146;2022-09-01T00:11:42;18.50;99.90
4090;DHT22;2059;48.538;12.146;2022-09-01T00:16:44;18.40;99.90
4090;DHT22;2059;48.538;12.146;2022-09-01T00:21:48;18.40;99.90
4090;DHT22;2059;48.538;12.146;2022-09-01T00:26:49;18.40;99.90
4090;DHT22;2059;48.538;12.146;2022-09-01T00:31:52;18.50;99.90
4090;DHT22;2059;48.538;12.146;2022-09-01T00:36:55;18.50;99.90
4090;DHT22;2059;48.538;12.146;2022-09-01T00:41:57;18.30;99.90
4090;DHT22;2059;48.538;12.146;2022-09-01T00:46:59;18.30;99.90
4090;DHT22;2059;48.538;12.146;2022-09-01T00:52:05;18.40;99.90
4090;DHT22;2059;48.538;12.146;2022-09-01T00:57:09;18.30;99.90
4090;DHT22;2059;48.538;12.146;2022-09-01T01:02:12;18.40;99.90
4090;DHT22;2059;48.538;12.146;2022-09-01T01:07:15;18.40;99.90
4090;DHT22;2059;48.538;12.146;2022-09-01T01:12:18;18.30;99.90
4090;DHT22;2059;48.538;12.146;2022-09-01T01:17:21;18.30;99.90
4090;DHT22;2059;48.538;12.146;2022-09-01T01:22:31;18.30;99.90
4090;DHT22;2059;48.538;12.146;2022-09-01T01:28:03;18.30;99.90
4090;DHT22;2059;48.538;12.146;2022-09-01T01:33:05;18.30;99.90
4090;DHT22;2059;48.538;12.146;2022-09-01T01:38:07;18.30;99.90
4090;DHT22;2059;48.538;12.146;2022-09-01T01:43:10;18.30;99.90
4090;DHT22;2059;48.538;12.146;2022-09-01T01:48:22;18.30;99.90
4090;DHT22;2059;48.538;12.146;2022-09-01T01:53:24;18.20;99.90
4090;DHT22;2059;48.538;12.146;2022-09-01T01:58:27;18.20;99.90
4090;DHT22;2059;48.538;12.146;2022-09-01T02:03:32;18.30;99.90
4090;DHT22;2059;48.538;12.146;2022-09-01T02:08:38;18.30;99.90
4090;DHT22;2059;48.538;12.146;2022-09-01T02:13:42;18.30;99.90
4090;DHT22;2059;48.538;12.146;2022-09-01T02:18:46;18.30;99.90
4090;DHT22;2059;48.538;12.146;2022-09-01T02:23:51;18.20;99.90
4090;DHT22;2059;48.538;12.146;2022-09-01T02:28:59;18.20;99.90
4090;DHT22;2059;48.538;12.146;2022-09-01T02:34:04;18.20;99.90
4090;DHT22;2059;48.538;12.146;2022-09-01T02:39:10;18.20;99.90
4090;DHT22;2059;48.538;12.146;2022-09-01T02:44:13;18.10;99.90
4090;DHT22;2059;48.538;12.146;2022-09-01T02:49:18;18.10;99.90
4090;DHT22;2059;48.538;12.146;2022-09-01T02:54:25;18.10;99.90
4090;DHT22;2059;48.538;12.146;2022-09-01T02:59:28;18.10;99.90
4090;DHT22;2059;48.538;12.146;2022-09-01T03:04:31;18.10;99.90
4090;DHT22;2059;48.538;12.146;2022-09-01T03:09:34;18.00;99.90
4090;DHT22;2059;48.538;12.146;2022-09-01T03:14:37;18.10;99.90
4090;DHT22;2059;48.538;12.146;2022-09-01T03:19:39;18.20;99.90
4090;DHT22;2059;48.538;12.146;2022-09-01T03:24:44;18.00;99.90
4090;DHT22;2059;48.538;12.146;2022-09-01T03:29:47;18.00;99.90
4090;DHT22;2059;48.538;12.146;2022-09-01T03:34:49;18.00;99.90
4090;DHT22;2059;48.538;12.146;2022-09-01T03:39:51;18.00;99.90
4090;DHT22;2059;48.538;12.146;2022-09-01T03:44:56;17.90;99.90
4090;DHT22;2059;48.538;12.146;2022-09-01T03:49:57;18.00;99.90
4090;DHT22;2059;48.538;12.146;2022-09-01T03:54:59;18.00;99.90
4090;DHT22;2059;48.538;12.146;2022-09-01T04:00:03;17.90;99.90
4090;DHT22;2059;48.538;12.146;2022-09-01T04:05:20;18.00;99.90
4090;DHT22;2059;48.538;12.146;2022-09-01T04:10:24;18.00;99.90
4090;DHT22;2059;48.538;12.146;2022-09-01T04:15:28;18.00;99.90
4090;DHT22;2059;48.538;12.146;2022-09-01T04:20:31;18.00;99.90
4090;DHT22;2059;48.538;12.146;2022-09-01T04:25:48;18.00;99.90
4090;DHT22;2059;48.538;12.146;2022-09-01T04:30:54;18.00;99.90
4090;DHT22;2059;48.538;12.146;2022-09-01T04:35:57;17.90;99.90
4090;DHT22;2059;48.538;12.146;2022-09-01T04:41:02;17.90;99.90
4090;DHT22;2059;48.538;12.146;2022-09-01T04:46:07;17.90;99.90
4090;DHT22;2059;48.538;12.146;2022-09-01T04:51:11;17.80;99.90
4090;DHT22;2059;48.538;12.146;2022-09-01T04:56:13;17.90;99.90
4090;DHT22;2059;48.538;12.146;2022-09-01T05:01:21;17.90;99.90
4090;DHT22;2059;48.538;12.146;2022-09-01T05:06:23;17.90;99.90
4090;DHT22;2059;48.538;12.146;2022-09-01T05:11:25;17.90;99.90
4090;DHT22;2059;48.538;12.146;2022-09-01T05:16:28;17.90;99.90
4090;DHT22;2059;48.538;12.146;2022-09-01T05:21:30;18.00;99.90
4090;DHT22;2059;48.538;12.146;2022-09-01T05:26:32;17.90;99.90
4090;DHT22;2059;48.538;12.146;2022-09-01T05:31:35;18.00;99.90
4090;DHT22;2059;48.538;12.146;2022-09-01T05:36:43;17.80;99.90
4090;DHT22;2059;48.538;12.146;2022-09-01T05:41:45;18.10;99.90
4090;DHT22;2059;48.538;12.146;2022-09-01T05:46:50;18.00;99.90
4090;DHT22;2059;48.538;12.146;2022-09-01T05:51:53;18.10;99.90
4090;DHT22;2059;48.538;12.146;2022-09-01T05:56:58;18.10;99.90
4090;DHT22;2059;48.538;12.146;2022-09-01T06:02:02;18.20;99.90
4090;DHT22;2059;48.538;12.146;2022-09-01T06:07:10;18.20;99.90
4090;DHT22;2059;48.538;12.146;2022-09-01T06:12:14;18.30;99.90
4090;DHT22;2059;48.538;12.146;2022-09-01T06:17:25;18.50;99.90
4090;DHT22;2059;48.538;12.146;2022-09-01T06:46:18;19.20;99.90
4090;DHT22;2059;48.538;12.146;2022-09-01T06:51:21;19.20;99.90
4090;DHT22;2059;48.538;12.146;2022-09-01T06:56:25;19.20;99.90
4090;DHT22;2059;48.538;12.146;2022-09-01T07:01:30;19.20;99.90
4090;DHT22;2059;48.538;12.146;2022-09-01T07:06:33;19.20;99.90
4090;DHT22;2059;48.538;12.146;2022-09-01T07:11:35;19.20;99.90
4090;DHT22;2059;48.538;12.146;2022-09-01T07:16:39;19.20;99.90
4090;DHT22;2059;48.538;12.146;2022-09-01T07:21:42;19.30;99.90
4090;DHT22;2059;48.538;12.146;2022-09-01T07:26:44;19.60;99.90
4090;DHT22;2059;48.538;12.146;2022-09-01T07:31:50;19.80;99.90
4090;DHT22;2059;48.538;12.146;2022-09-01T07:36:54;19.70;99.90
4090;DHT22;2059;48.538;12.146;2022-09-01T07:41:59;19.90;99.90
4090;DHT22;2059;48.538;12.146;2022-09-01T07:47:10;20.00;99.90
4090;DHT22;2059;48.538;12.146;2022-09-01T07:52:14;20.10;99.90
4090;DHT22;2059;48.538;12.146;2022-09-01T07:57:17;19.90;99.90
4090;DHT22;2059;48.538;12.146;2022-09-01T08:02:20;19.90;99.90
4090;DHT22;2059;48.538;12.146;2022-09-01T08:07:24;20.00;99.90
4090;DHT22;2059;48.538;12.146;2022-09-01T08:12:25;20.10;99.90
4090;DHT22;2059;48.538;12.146;2022-09-01T08:17:28;20.40;99.90
4090;DHT22;2059;48.538;12.146;2022-09-01T08:22:31;20.70;99.90
4090;DHT22;2059;48.538;12.146;2022-09-01T08:27:34;20.80;99.90
4090;DHT22;2059;48.538;12.146;2022-09-01T08:32:40;21.00;99.90
4090;DHT22;2059;48.538;12.146;2022-09-01T08:37:42;21.10;99.90
4090;DHT22;2059;48.538;12.146;2022-09-01T08:42:52;21.20;99.90
4090;DHT22;2059;48.538;12.146;2022-09-01T08:48:04;21.20;99.90
4090;DHT22;2059;48.538;12.146;2022-09-01T08:53:19;21.30;99.90
4090;DHT22;2059;48.538;12.146;2022-09-01T08:58:22;21.80;99.90
4090;DHT22;2059;48.538;12.146;2022-09-01T09:03:33;21.60;99.90
4090;DHT22;2059;48.538;12.146;2022-09-01T09:08:55;21.70;99.90
4090;DHT22;2059;48.538;12.146;2022-09-01T09:14:04;21.50;99.90
4090;DHT22;2059;48.538;12.146;2022-09-01T09:19:15;22.20;99.90
4090;DHT22;2059;48.538;12.146;2022-09-01T09:24:25;22.40;99.90
4090;DHT22;2059;48.538;12.146;2022-09-01T09:29:27;22.60;99.10
4090;DHT22;2059;48.538;12.146;2022-09-01T09:34:33;22.60;99.10
4090;DHT22;2059;48.538;12.146;2022-09-01T09:39:35;23.20;98.40
4090;DHT22;2059;48.538;12.146;2022-09-01T09:44:42;23.60;97.30
4090;DHT22;2059;48.538;12.146;2022-09-01T09:49:46;23.60;97.00
4090;DHT22;2059;48.538;12.146;2022-09-01T09:54:59;23.70;96.80
4090;DHT22;2059;48.538;12.146;2022-09-01T10:00:06;23.30;95.60
4090;DHT22;2059;48.538;12.146;2022-09-01T10:05:26;23.10;96.40
4090;DHT22;2059;48.538;12.146;2022-09-01T10:10:35;22.80;96.40
4090;DHT22;2059;48.538;12.146;2022-09-01T10:15:40;22.80;97.50
4090;DHT22;2059;48.538;12.146;2022-09-01T10:20:48;22.70;96.70
4090;DHT22;2059;48.538;12.146;2022-09-01T10:26:00;22.60;97.60
4090;DHT22;2059;48.538;12.146;2022-09-01T10:31:03;22.40;97.70
4090;DHT22;2059;48.538;12.146;2022-09-01T10:36:07;22.40;97.80
4090;DHT22;2059;48.538;12.146;2022-09-01T10:41:42;22.60;96.90
4090;DHT22;2059;48.538;12.146;2022-09-01T10:46:45;22.40;97.00
4090;DHT22;2059;48.538;12.146;2022-09-01T10:51:48;22.50;97.30
4090;DHT22;2059;48.538;12.146;2022-09-01T10:56:51;22.30;95.60
4090;DHT22;2059;48.538;12.146;2022-09-01T11:02:09;22.30;96.20
4090;DHT22;2059;48.538;12.146;2022-09-01T11:07:32;22.20;97.70
4090;DHT22;2059;48.538;12.146;2022-09-01T11:12:46;22.10;97.60
4090;DHT22;2059;48.538;12.146;2022-09-01T11:17:55;22.10;97.40
4090;DHT22;2059;48.538;12.146;2022-09-01T11:23:01;22.30;96.90
4090;DHT22;2059;48.538;12.146;2022-09-01T11:28:09;22.30;97.10
4090;DHT22;2059;48.538;12.146;2022-09-01T11:33:25;22.30;96.30
4090;DHT22;2059;48.538;12.146;2022-09-01T11:38:37;22.60;96.80
4090;DHT22;2059;48.538;12.146;2022-09-01T11:43:43;22.70;96.00
4090;DHT22;2059;48.538;12.146;2022-09-01T11:48:45;23.00;95.90
4090;DHT22;2059;48.538;12.146;2022-09-01T11:53:51;23.00;95.40
4090;DHT22;2059;48.538;12.146;2022-09-01T11:58:59;22.90;94.40
4090;DHT22;2059;48.538;12.146;2022-09-01T12:04:18;23.10;94.90
4090;DHT22;2059;48.538;12.146;2022-09-01T12:09:31;23.40;95.10
4090;DHT22;2059;48.538;12.146;2022-09-01T12:14:34;23.50;94.00
4090;DHT22;2059;48.538;12.146;2022-09-01T12:19:36;23.90;93.30
4090;DHT22;2059;48.538;12.146;2022-09-01T12:24:45;24.20;91.90
4090;DHT22;2059;48.538;12.146;2022-09-01T12:29:48;24.10;87.40
4090;DHT22;2059;48.538;12.146;2022-09-01T12:35:00;24.20;88.90
4090;DHT22;2059;48.538;12.146;2022-09-01T12:40:04;24.30;86.90
4090;DHT22;2059;48.538;12.146;2022-09-01T12:45:07;24.00;86.80
4090;DHT22;2059;48.538;12.146;2022-09-01T12:56:15;24.60;90.30
4090;DHT22;2059;48.538;12.146;2022-09-01T13:01:27;24.40;89.70
4090;DHT22;2059;48.538;12.146;2022-09-01T13:06:29;24.00;90.30
4090;DHT22;2059;48.538;12.146;2022-09-01T13:11:32;23.60;89.10
4090;DHT22;2059;48.538;12.146;2022-09-01T13:16:35;23.50;90.30
4090;DHT22;2059;48.538;12.146;2022-09-01T13:21:37;23.30;90.80
4090;DHT22;2059;48.538;12.146;2022-09-01T13:26:40;23.30;90.80
4090;DHT22;2059;48.538;12.146;2022-09-01T13:31:42;23.20;90.50
4090;DHT22;2059;48.538;12.146;2022-09-01T13:36:44;23.20;90.90
4090;DHT22;2059;48.538;12.146;2022-09-01T13:41:47;23.30;90.70
4090;DHT22;2059;48.538;12.146;2022-09-01T13:46:49;23.60;90.30
4090;DHT22;2059;48.538;12.146;2022-09-01T13:51:52;23.70;89.80
4090;DHT22;2059;48.538;12.146;2022-09-01T13:56:56;23.90;90.00
4090;DHT22;2059;48.538;12.146;2022-09-01T14:01:58;24.10;89.50
4090;DHT22;2059;48.538;12.146;2022-09-01T14:07:01;24.20;87.70
4090;DHT22;2059;48.538;12.146;2022-09-01T14:12:04;24.10;85.80
4090;DHT22;2059;48.538;12.146;2022-09-01T14:17:06;23.90;86.50
4090;DHT22;2059;48.538;12.146;2022-09-01T14:22:08;23.90;86.10
4090;DHT22;2059;48.538;12.146;2022-09-01T14:27:11;23.90;85.40
4090;DHT22;2059;48.538;12.146;2022-09-01T14:32:13;23.60;83.50
4090;DHT22;2059;48.538;12.146;2022-09-01T14:37:16;23.80;82.40
4090;DHT22;2059;48.538;12.146;2022-09-01T14:42:19;23.80;82.70
4090;DHT22;2059;48.538;12.146;2022-09-01T14:47:23;23.60;81.80
4090;DHT22;2059;48.538;12.146;2022-09-01T14:52:25;23.40;84.40
4090;DHT22;2059;48.538;12.146;2022-09-01T14:57:28;23.50;82.70
4090;DHT22;2059;48.538;12.146;2022-09-01T15:02:31;23.60;81.80
4090;DHT22;2059;48.538;12.146;2022-09-01T15:07:33;23.60;84.90
4090;DHT22;2059;48.538;12.146;2022-09-01T15:12:37;23.90;83.10
4090;DHT22;2059;48.538;12.146;2022-09-01T15:17:39;23.80;82.10
4090;DHT22;2059;48.538;12.146;2022-09-01T15:22:41;23.60;80.70
4090;DHT22;2059;48.538;12.146;2022-09-01T15:27:44;23.70;79.00
4090;DHT22;2059;48.538;12.146;2022-09-01T15:32:48;23.70;81.10
4090;DHT22;2059;48.538;12.146;2022-09-01T15:37:50;23.60;81.60
4090;DHT22;2059;48.538;12.146;2022-09-01T15:42:55;23.80;81.80
4090;DHT22;2059;48.538;12.146;2022-09-01T15:47:58;24.00;81.10
4090;DHT22;2059;48.538;12.146;2022-09-01T15:53:02;23.90;81.60
4090;DHT22;2059;48.538;12.146;2022-09-01T15:58:11;23.70;80.70
4090;DHT22;2059;48.538;12.146;2022-09-01T16:03:13;23.60;80.30
4090;DHT22;2059;48.538;12.146;2022-09-01T16:08:16;23.40;82.30
4090;DHT22;2059;48.538;12.146;2022-09-01T16:13:20;23.30;81.80
4090;DHT22;2059;48.538;12.146;2022-09-01T16:18:32;23.10;81.80
4090;DHT22;2059;48.538;12.146;2022-09-01T16:23:43;23.10;83.00
4090;DHT22;2059;48.538;12.146;2022-09-01T16:28:49;22.80;82.80
4090;DHT22;2059;48.538;12.146;2022-09-01T16:33:54;22.80;84.80
4090;DHT22;2059;48.538;12.146;2022-09-01T16:39:04;23.00;82.70
4090;DHT22;2059;48.538;12.146;2022-09-01T16:44:21;22.90;81.40
4090;DHT22;2059;48.538;12.146;2022-09-01T16:49:28;22.80;78.80
4090;DHT22;2059;48.538;12.146;2022-09-01T16:54:41;22.50;82.00
4090;DHT22;2059;48.538;12.146;2022-09-01T16:59:51;22.40;83.00
4090;DHT22;2059;48.538;12.146;2022-09-01T17:04:59;22.30;82.30
4090;DHT22;2059;48.538;12.146;2022-09-01T17:10:05;22.30;82.70
4090;DHT22;2059;48.538;12.146;2022-09-01T17:15:15;22.00;83.00
4090;DHT22;2059;48.538;12.146;2022-09-01T17:20:23;21.90;84.40
4090;DHT22;2059;48.538;12.146;2022-09-01T17:25:29;21.90;85.00
4090;DHT22;2059;48.538;12.146;2022-09-01T17:30:38;21.70;84.90
4090;DHT22;2059;48.538;12.146;2022-09-01T17:35:51;21.60;85.50
4090;DHT22;2059;48.538;12.146;2022-09-01T17:41:07;21.50;86.30
4090;DHT22;2059;48.538;12.146;2022-09-01T17:46:18;21.60;85.40
4090;DHT22;2059;48.538;12.146;2022-09-01T17:51:33;21.50;86.10
4090;DHT22;2059;48.538;12.146;2022-09-01T17:56:43;21.50;86.60
4090;DHT22;2059;48.538;12.146;2022-09-01T18:01:58;21.40;86.90
4090;DHT22;2059;48.538;12.146;2022-09-01T18:07:08;21.30;88.30
4090;DHT22;2059;48.538;12.146;2022-09-01T18:12:15;21.20;87.60
4090;DHT22;2059;48.538;12.146;2022-09-01T18:17:24;21.20;89.10
4090;DHT22;2059;48.538;12.146;2022-09-01T18:22:35;21.10;88.90
4090;DHT22;2059;48.538;12.146;2022-09-01T18:27:38;21.10;88.30
4090;DHT22;2059;48.538;12.146;2022-09-01T18:32:51;21.00;88.40
4090;DHT22;2059;48.538;12.146;2022-09-01T18:38:18;20.90;88.20
4090;DHT22;2059;48.538;12.146;2022-09-01T18:43:26;21.00;87.90
4090;DHT22;2059;48.538;12.146;2022-09-01T18:48:50;21.00;88.20
4090;DHT22;2059;48.538;12.146;2022-09-01T18:53:56;20.80;89.10
4090;DHT22;2059;48.538;12.146;2022-09-01T18:59:11;20.80;89.40
4090;DHT22;2059;48.538;12.146;2022-09-01T19:04:21;20.60;89.90
4090;DHT22;2059;48.538;12.146;2022-09-01T19:09:30;20.70;89.90
4090;DHT22;2059;48.538;12.146;2022-09-01T19:14:37;20.50;90.40
4090;DHT22;2059;48.538;12.146;2022-09-01T19:19:45;20.40;90.60
4090;DHT22;2059;48.538;12.146;2022-09-01T19:24:51;20.50;91.10
4090;DHT22;2059;48.538;12.146;2022-09-01T19:30:17;20.20;91.10
4090;DHT22;2059;48.538;12.146;2022-09-01T19:35:20;20.20;91.40
4090;DHT22;2059;48.538;12.146;2022-09-01T19:40:27;20.10;91.60
4090;DHT22;2059;48.538;12.146;2022-09-01T19:45:39;20.00;91.90
4090;DHT22;2059;48.538;12.146;2022-09-01T19:50:49;19.90;92.10
4090;DHT22;2059;48.538;12.146;2022-09-01T19:55:57;19.80;92.20
4090;DHT22;2059;48.538;12.146;2022-09-01T20:01:03;19.60;92.40
4090;DHT22;2059;48.538;12.146;2022-09-01T20:06:16;19.60;92.40
4090;DHT22;2059;48.538;12.146;2022-09-01T20:11:34;19.50;92.70
4090;DHT22;2059;48.538;12.146;2022-09-01T20:16:42;19.40;92.90
4090;DHT22;2059;48.538;12.146;2022-09-01T20:21:47;19.20;93.20
4090;DHT22;2059;48.538;12.146;2022-09-01T20:26:57;19.10;93.70
4090;DHT22;2059;48.538;12.146;2022-09-01T20:32:00;19.00;94.10
4090;DHT22;2059;48.538;12.146;2022-09-01T20:37:08;18.80;94.50
4090;DHT22;2059;48.538;12.146;2022-09-01T20:42:14;18.90;94.80
4090;DHT22;2059;48.538;12.146;2022-09-01T20:47:19;18.70;95.20
4090;DHT22;2059;48.538;12.146;2022-09-01T20:52:30;18.60;95.60
4090;DHT22;2059;48.538;12.146;2022-09-01T20:57:52;18.40;95.80
4090;DHT22;2059;48.538;12.146;2022-09-01T21:03:10;18.30;96.00
4090;DHT22;2059;48.538;12.146;2022-09-01T21:08:29;18.20;96.20
4090;DHT22;2059;48.538;12.146;2022-09-01T21:13:45;18.10;96.90
4090;DHT22;2059;48.538;12.146;2022-09-01T21:18:57;18.10;97.10
4090;DHT22;2059;48.538;12.146;2022-09-01T21:24:05;18.00;97.00
4090;DHT22;2059;48.538;12.146;2022-09-01T21:29:21;17.90;97.30
4090;DHT22;2059;48.538;12.146;2022-09-01T21:34:23;17.70;97.90
4090;DHT22;2059;48.538;12.146;2022-09-01T21:39:27;17.70;98.10
4090;DHT22;2059;48.538;12.146;2022-09-01T21:44:29;17.70;98.10
4090;DHT22;2059;48.538;12.146;2022-09-01T21:49:31;17.60;98.30
4090;DHT22;2059;48.538;12.146;2022-09-01T21:54:34;17.60;98.40
4090;DHT22;2059;48.538;12.146;2022-09-01T21:59:36;17.50;98.30
4090;DHT22;2059;48.538;12.146;2022-09-01T22:04:38;17.40;98.70
4090;DHT22;2059;48.538;12.146;2022-09-01T22:09:42;17.40;98.70
4090;DHT22;2059;48.538;12.146;2022-09-01T22:14:44;17.30;98.80
4090;DHT22;2059;48.538;12.146;2022-09-01T22:19:45;17.30;99.10
4090;DHT22;2059;48.538;12.146;2022-09-01T22:24:49;17.10;99.40
4090;DHT22;2059;48.538;12.146;2022-09-01T22:29:51;17.00;99.60
4090;DHT22;2059;48.538;12.146;2022-09-01T22:34:53;16.90;99.90
4090;DHT22;2059;48.538;12.146;2022-09-01T22:39:56;16.90;99.90
4090;DHT22;2059;48.538;12.146;2022-09-01T22:44:58;16.90;99.90
4090;DHT22;2059;48.538;12.146;2022-09-01T22:50:00;16.90;99.90
4090;DHT22;2059;48.538;12.146;2022-09-01T22:55:04;16.80;99.80
4090;DHT22;2059;48.538;12.146;2022-09-01T23:00:08;16.60;99.90
4090;DHT22;2059;48.538;12.146;2022-09-01T23:05:10;16.50;99.90
4090;DHT22;2059;48.538;12.146;2022-09-01T23:10:13;16.70;99.90
4090;DHT22;2059;48.538;12.146;2022-09-01T23:15:16;16.40;99.90
4090;DHT22;2059;48.538;12.146;2022-09-01T23:20:18;16.40;99.90
4090;DHT22;2059;48.538;12.146;2022-09-01T23:25:21;16.40;99.90
4090;DHT22;2059;48.538;12.146;2022-09-01T23:30:23;16.30;99.90
4090;DHT22;2059;48.538;12.146;2022-09-01T23:35:25;16.30;99.90
4090;DHT22;2059;48.538;12.146;2022-09-01T23:40:28;16.20;99.90
4090;DHT22;2059;48.538;12.146;2022-09-01T23:45:30;16.10;99.90
4090;DHT22;2059;48.538;12.146;2022-09-01T23:50:32;16.00;99.90
4090;DHT22;2059;48.538;12.146;2022-09-01T23:55:42;16.10;99.90
